sensor_id;sensor_type;location;lat;lon;timestamp;P1;durP1;ratioP1;P2;durP2;ratioP2
60078;SDS011;45951;45.824;8.824;2023-05-29T00:01:39;9.52;;;6.45;;
60078;SDS011;45951;45.824;8.824;2023-05-29T00:03:20;8.98;;;5.65;;
60078;SDS011;45951;45.824;8.824;2023-05-29T00:05:01;10.13;;;6.20;;
60078;SDS011;45951;45.824;8.824;2023-05-29T00:06:45;8.98;;;6.18;;
60078;SDS011;45951;45.824;8.824;2023-05-29T00:08:26;9.27;;;6.05;;
60078;SDS011;45951;45.824;8.824;2023-05-29T00:10:07;8.15;;;5.57;;
60078;SDS011;45951;45.824;8.824;2023-05-29T00:11:48;9.05;;;5.80;;
60078;SDS011;45951;45.824;8.824;2023-05-29T00:13:32;8.30;;;5.97;;
60078;SDS011;45951;45.824;8.824;2023-05-29T00:15:12;8.90;;;6.40;;
60078;SDS011;45951;45.824;8.824;2023-05-29T00:16:52;9.30;;;6.15;;
60078;SDS011;45951;45.824;8.824;2023-05-29T00:18:33;8.35;;;5.80;;
60078;SDS011;45951;45.824;8.824;2023-05-29T00:20:14;9.55;;;6.25;;
60078;SDS011;45951;45.824;8.824;2023-05-29T00:21:55;8.90;;;6.13;;
60078;SDS011;45951;45.824;8.824;2023-05-29T00:23:35;8.98;;;5.97;;
60078;SDS011;45951;45.824;8.824;2023-05-29T00:25:15;13.00;;;6.40;;
60078;SDS011;45951;45.824;8.824;2023-05-29T00:26:56;11.02;;;6.40;;
60078;SDS011;45951;45.824;8.824;2023-05-29T00:28:42;10.07;;;6.45;;
60078;SDS011;45951;45.824;8.824;2023-05-29T00:30:33;9.93;;;6.05;;
60078;SDS011;45951;45.824;8.824;2023-05-29T00:32:13;8.68;;;5.82;;
60078;SDS011;45951;45.824;8.824;2023-05-29T00:33:54;8.25;;;5.55;;
60078;SDS011;45951;45.824;8.824;2023-05-29T00:35:34;8.60;;;5.68;;
60078;SDS011;45951;45.824;8.824;2023-05-29T00:37:14;7.88;;;5.45;;
60078;SDS011;45951;45.824;8.824;2023-05-29T00:38:55;8.25;;;5.97;;
60078;SDS011;45951;45.824;8.824;2023-05-29T00:40:35;8.68;;;5.80;;
60078;SDS011;45951;45.824;8.824;2023-05-29T00:42:15;8.02;;;5.60;;
60078;SDS011;45951;45.824;8.824;2023-05-29T00:43:56;8.85;;;6.10;;
60078;SDS011;45951;45.824;8.824;2023-05-29T00:45:36;8.57;;;6.00;;
60078;SDS011;45951;45.824;8.824;2023-05-29T00:47:17;8.25;;;5.70;;
60078;SDS011;45951;45.824;8.824;2023-05-29T00:48:58;9.65;;;6.32;;
60078;SDS011;45951;45.824;8.824;2023-05-29T00:50:39;8.20;;;5.80;;
60078;SDS011;45951;45.824;8.824;2023-05-29T00:52:20;7.90;;;5.45;;
60078;SDS011;45951;45.824;8.824;2023-05-29T00:54:01;7.88;;;5.35;;
60078;SDS011;45951;45.824;8.824;2023-05-29T00:55:41;7.20;;;5.43;;
60078;SDS011;45951;45.824;8.824;2023-05-29T00:57:22;7.70;;;5.35;;
60078;SDS011;45951;45.824;8.824;2023-05-29T00:59:03;8.32;;;5.47;;
60078;SDS011;45951;45.824;8.824;2023-05-29T01:00:43;7.68;;;5.30;;
60078;SDS011;45951;45.824;8.824;2023-05-29T01:02:24;7.72;;;5.10;;
60078;SDS011;45951;45.824;8.824;2023-05-29T01:04:05;7.55;;;4.93;;
60078;SDS011;45951;45.824;8.824;2023-05-29T01:05:48;7.00;;;5.00;;
60078;SDS011;45951;45.824;8.824;2023-05-29T01:07:29;8.15;;;4.85;;
60078;SDS011;45951;45.824;8.824;2023-05-29T01:09:09;8.40;;;4.97;;
60078;SDS011;45951;45.824;8.824;2023-05-29T01:10:51;7.50;;;4.75;;
60078;SDS011;45951;45.824;8.824;2023-05-29T01:12:43;7.07;;;4.78;;
60078;SDS011;45951;45.824;8.824;2023-05-29T01:18:21;7.97;;;4.82;;
60078;SDS011;45951;45.824;8.824;2023-05-29T01:20:11;8.48;;;5.40;;
60078;SDS011;45951;45.824;8.824;2023-05-29T01:22:03;6.80;;;4.60;;
60078;SDS011;45951;45.824;8.824;2023-05-29T01:26:09;7.53;;;4.57;;
60078;SDS011;45951;45.824;8.824;2023-05-29T01:28:03;7.72;;;4.85;;
60078;SDS011;45951;45.824;8.824;2023-05-29T01:29:44;8.15;;;4.97;;
60078;SDS011;45951;45.824;8.824;2023-05-29T01:31:26;7.85;;;4.90;;
60078;SDS011;45951;45.824;8.824;2023-05-29T01:33:06;6.72;;;5.00;;
60078;SDS011;45951;45.824;8.824;2023-05-29T01:34:47;9.00;;;5.60;;
60078;SDS011;45951;45.824;8.824;2023-05-29T01:36:27;7.70;;;4.95;;
60078;SDS011;45951;45.824;8.824;2023-05-29T01:38:07;7.93;;;5.18;;
60078;SDS011;45951;45.824;8.824;2023-05-29T01:39:48;8.13;;;5.50;;
60078;SDS011;45951;45.824;8.824;2023-05-29T01:41:28;9.48;;;5.38;;
60078;SDS011;45951;45.824;8.824;2023-05-29T01:43:09;8.90;;;5.78;;
60078;SDS011;45951;45.824;8.824;2023-05-29T01:44:50;8.93;;;6.22;;
60078;SDS011;45951;45.824;8.824;2023-05-29T01:46:30;9.43;;;5.80;;
60078;SDS011;45951;45.824;8.824;2023-05-29T01:48:10;9.68;;;6.10;;
60078;SDS011;45951;45.824;8.824;2023-05-29T01:49:51;8.25;;;5.82;;
60078;SDS011;45951;45.824;8.824;2023-05-29T01:51:32;8.73;;;5.22;;
60078;SDS011;45951;45.824;8.824;2023-05-29T01:53:12;9.30;;;5.78;;
60078;SDS011;45951;45.824;8.824;2023-05-29T01:54:53;8.77;;;5.30;;
60078;SDS011;45951;45.824;8.824;2023-05-29T01:56:34;9.23;;;6.00;;
60078;SDS011;45951;45.824;8.824;2023-05-29T01:58:15;8.38;;;5.55;;
60078;SDS011;45951;45.824;8.824;2023-05-29T01:59:56;8.32;;;5.70;;
60078;SDS011;45951;45.824;8.824;2023-05-29T02:01:38;7.88;;;5.40;;
60078;SDS011;45951;45.824;8.824;2023-05-29T02:03:19;9.13;;;5.93;;
60078;SDS011;45951;45.824;8.824;2023-05-29T02:04:59;8.73;;;6.65;;
60078;SDS011;45951;45.824;8.824;2023-05-29T02:06:39;9.25;;;6.00;;
60078;SDS011;45951;45.824;8.824;2023-05-29T02:08:20;8.88;;;5.85;;
60078;SDS011;45951;45.824;8.824;2023-05-29T02:10:00;8.82;;;5.57;;
60078;SDS011;45951;45.824;8.824;2023-05-29T02:11:40;7.95;;;5.53;;
60078;SDS011;45951;45.824;8.824;2023-05-29T02:13:25;9.85;;;6.03;;
60078;SDS011;45951;45.824;8.824;2023-05-29T02:15:06;8.80;;;5.85;;
60078;SDS011;45951;45.824;8.824;2023-05-29T02:16:47;8.40;;;5.30;;
60078;SDS011;45951;45.824;8.824;2023-05-29T02:18:28;8.55;;;5.85;;
60078;SDS011;45951;45.824;8.824;2023-05-29T02:20:09;8.88;;;5.90;;
60078;SDS011;45951;45.824;8.824;2023-05-29T02:21:51;9.18;;;6.20;;
60078;SDS011;45951;45.824;8.824;2023-05-29T02:23:31;8.40;;;5.95;;
60078;SDS011;45951;45.824;8.824;2023-05-29T02:25:11;9.63;;;6.07;;
60078;SDS011;45951;45.824;8.824;2023-05-29T02:26:51;8.38;;;5.72;;
60078;SDS011;45951;45.824;8.824;2023-05-29T02:28:32;10.07;;;6.30;;
60078;SDS011;45951;45.824;8.824;2023-05-29T02:30:12;8.77;;;5.85;;
60078;SDS011;45951;45.824;8.824;2023-05-29T02:31:53;11.00;;;6.10;;
60078;SDS011;45951;45.824;8.824;2023-05-29T02:33:33;8.00;;;5.90;;
60078;SDS011;45951;45.824;8.824;2023-05-29T02:35:13;8.32;;;6.10;;
60078;SDS011;45951;45.824;8.824;2023-05-29T02:36:55;11.07;;;5.22;;
60078;SDS011;45951;45.824;8.824;2023-05-29T02:38:35;7.95;;;5.40;;
60078;SDS011;45951;45.824;8.824;2023-05-29T02:40:16;8.45;;;5.47;;
60078;SDS011;45951;45.824;8.824;2023-05-29T02:41:57;8.43;;;5.50;;
60078;SDS011;45951;45.824;8.824;2023-05-29T02:43:37;9.57;;;5.90;;
60078;SDS011;45951;45.824;8.824;2023-05-29T02:45:17;9.60;;;5.55;;
60078;SDS011;45951;45.824;8.824;2023-05-29T02:46:58;8.52;;;5.30;;
60078;SDS011;45951;45.824;8.824;2023-05-29T02:48:38;8.75;;;5.70;;
60078;SDS011;45951;45.824;8.824;2023-05-29T02:50:18;8.75;;;6.10;;
60078;SDS011;45951;45.824;8.824;2023-05-29T02:51:59;8.10;;;5.40;;
60078;SDS011;45951;45.824;8.824;2023-05-29T02:53:39;9.63;;;5.70;;
60078;SDS011;45951;45.824;8.824;2023-05-29T02:55:20;10.73;;;5.97;;
60078;SDS011;45951;45.824;8.824;2023-05-29T02:57:00;9.52;;;5.50;;
60078;SDS011;45951;45.824;8.824;2023-05-29T02:58:42;8.60;;;5.30;;
60078;SDS011;45951;45.824;8.824;2023-05-29T03:00:22;8.15;;;5.50;;
60078;SDS011;45951;45.824;8.824;2023-05-29T03:02:03;8.85;;;5.97;;
60078;SDS011;45951;45.824;8.824;2023-05-29T03:03:43;8.20;;;5.47;;
60078;SDS011;45951;45.824;8.824;2023-05-29T03:05:24;9.85;;;6.00;;
60078;SDS011;45951;45.824;8.824;2023-05-29T03:07:04;7.80;;;5.32;;
60078;SDS011;45951;45.824;8.824;2023-05-29T03:08:44;9.32;;;6.25;;
60078;SDS011;45951;45.824;8.824;2023-05-29T03:10:25;8.45;;;5.45;;
60078;SDS011;45951;45.824;8.824;2023-05-29T03:12:05;8.15;;;5.10;;
60078;SDS011;45951;45.824;8.824;2023-05-29T03:13:45;7.65;;;5.15;;
60078;SDS011;45951;45.824;8.824;2023-05-29T03:15:26;8.80;;;5.78;;
60078;SDS011;45951;45.824;8.824;2023-05-29T03:17:07;8.15;;;5.43;;
60078;SDS011;45951;45.824;8.824;2023-05-29T03:18:47;8.65;;;5.40;;
60078;SDS011;45951;45.824;8.824;2023-05-29T03:20:27;10.02;;;5.57;;
60078;SDS011;45951;45.824;8.824;2023-05-29T03:22:08;8.43;;;5.47;;
60078;SDS011;45951;45.824;8.824;2023-05-29T03:23:48;7.68;;;5.47;;
60078;SDS011;45951;45.824;8.824;2023-05-29T03:25:29;8.82;;;5.82;;
60078;SDS011;45951;45.824;8.824;2023-05-29T03:27:09;8.02;;;5.18;;
60078;SDS011;45951;45.824;8.824;2023-05-29T03:28:50;9.50;;;5.95;;
60078;SDS011;45951;45.824;8.824;2023-05-29T03:30:30;8.60;;;5.80;;
60078;SDS011;45951;45.824;8.824;2023-05-29T03:32:11;8.00;;;5.45;;
60078;SDS011;45951;45.824;8.824;2023-05-29T03:33:51;10.60;;;5.68;;
60078;SDS011;45951;45.824;8.824;2023-05-29T03:35:31;7.72;;;5.60;;
60078;SDS011;45951;45.824;8.824;2023-05-29T03:37:12;7.38;;;5.15;;
60078;SDS011;45951;45.824;8.824;2023-05-29T03:38:53;10.10;;;5.80;;
60078;SDS011;45951;45.824;8.824;2023-05-29T03:40:33;10.02;;;5.80;;
60078;SDS011;45951;45.824;8.824;2023-05-29T03:42:13;8.77;;;5.35;;
60078;SDS011;45951;45.824;8.824;2023-05-29T03:43:54;8.40;;;5.80;;
60078;SDS011;45951;45.824;8.824;2023-05-29T03:45:35;8.80;;;5.38;;
60078;SDS011;45951;45.824;8.824;2023-05-29T03:47:15;8.60;;;5.87;;
60078;SDS011;45951;45.824;8.824;2023-05-29T03:48:55;7.95;;;5.60;;
60078;SDS011;45951;45.824;8.824;2023-05-29T03:50:36;9.38;;;5.80;;
60078;SDS011;45951;45.824;8.824;2023-05-29T03:52:16;10.10;;;5.72;;
60078;SDS011;45951;45.824;8.824;2023-05-29T03:53:56;7.60;;;5.40;;
60078;SDS011;45951;45.824;8.824;2023-05-29T03:55:37;8.88;;;5.40;;
60078;SDS011;45951;45.824;8.824;2023-05-29T03:57:17;8.02;;;5.60;;
60078;SDS011;45951;45.824;8.824;2023-05-29T03:58:57;8.57;;;5.88;;
60078;SDS011;45951;45.824;8.824;2023-05-29T04:00:38;8.07;;;5.65;;
60078;SDS011;45951;45.824;8.824;2023-05-29T04:02:18;8.35;;;5.75;;
60078;SDS011;45951;45.824;8.824;2023-05-29T04:03:59;7.90;;;5.63;;
60078;SDS011;45951;45.824;8.824;2023-05-29T04:05:39;9.95;;;6.18;;
60078;SDS011;45951;45.824;8.824;2023-05-29T04:07:20;7.72;;;5.43;;
60078;SDS011;45951;45.824;8.824;2023-05-29T04:09:01;7.50;;;5.53;;
60078;SDS011;45951;45.824;8.824;2023-05-29T04:10:42;8.45;;;5.43;;
60078;SDS011;45951;45.824;8.824;2023-05-29T04:12:23;8.50;;;5.55;;
60078;SDS011;45951;45.824;8.824;2023-05-29T04:14:03;8.93;;;6.00;;
60078;SDS011;45951;45.824;8.824;2023-05-29T04:15:44;10.38;;;5.75;;
60078;SDS011;45951;45.824;8.824;2023-05-29T04:17:24;8.88;;;6.10;;
60078;SDS011;45951;45.824;8.824;2023-05-29T04:19:04;9.80;;;6.28;;
60078;SDS011;45951;45.824;8.824;2023-05-29T04:20:45;10.00;;;5.93;;
60078;SDS011;45951;45.824;8.824;2023-05-29T04:22:27;10.35;;;7.13;;
60078;SDS011;45951;45.824;8.824;2023-05-29T04:24:07;11.27;;;6.93;;
60078;SDS011;45951;45.824;8.824;2023-05-29T04:25:47;10.43;;;6.88;;
60078;SDS011;45951;45.824;8.824;2023-05-29T04:27:30;13.23;;;7.80;;
60078;SDS011;45951;45.824;8.824;2023-05-29T04:29:17;10.77;;;6.63;;
60078;SDS011;45951;45.824;8.824;2023-05-29T04:30:58;11.05;;;7.22;;
60078;SDS011;45951;45.824;8.824;2023-05-29T04:32:38;10.10;;;6.95;;
60078;SDS011;45951;45.824;8.824;2023-05-29T04:34:22;8.90;;;6.78;;
60078;SDS011;45951;45.824;8.824;2023-05-29T04:36:08;10.30;;;6.95;;
60078;SDS011;45951;45.824;8.824;2023-05-29T04:37:53;10.80;;;7.03;;
60078;SDS011;45951;45.824;8.824;2023-05-29T04:39:38;11.63;;;6.88;;
60078;SDS011;45951;45.824;8.824;2023-05-29T04:41:19;11.93;;;8.05;;
60078;SDS011;45951;45.824;8.824;2023-05-29T04:43:03;9.93;;;6.95;;
60078;SDS011;45951;45.824;8.824;2023-05-29T04:44:45;10.38;;;6.72;;
60078;SDS011;45951;45.824;8.824;2023-05-29T04:46:26;10.30;;;6.55;;
60078;SDS011;45951;45.824;8.824;2023-05-29T04:48:06;11.52;;;6.70;;
60078;SDS011;45951;45.824;8.824;2023-05-29T04:49:49;10.57;;;6.68;;
60078;SDS011;45951;45.824;8.824;2023-05-29T04:51:37;9.95;;;6.82;;
60078;SDS011;45951;45.824;8.824;2023-05-29T04:53:20;10.80;;;6.35;;
60078;SDS011;45951;45.824;8.824;2023-05-29T04:55:12;9.35;;;6.22;;
60078;SDS011;45951;45.824;8.824;2023-05-29T04:56:54;9.05;;;6.13;;
60078;SDS011;45951;45.824;8.824;2023-05-29T04:58:35;8.27;;;6.07;;
60078;SDS011;45951;45.824;8.824;2023-05-29T05:00:15;9.27;;;6.07;;
60078;SDS011;45951;45.824;8.824;2023-05-29T05:01:58;11.55;;;6.20;;
60078;SDS011;45951;45.824;8.824;2023-05-29T05:03:44;9.63;;;5.82;;
60078;SDS011;45951;45.824;8.824;2023-05-29T05:05:24;9.18;;;6.00;;
60078;SDS011;45951;45.824;8.824;2023-05-29T05:07:05;9.35;;;5.53;;
60078;SDS011;45951;45.824;8.824;2023-05-29T05:08:45;8.77;;;5.90;;
60078;SDS011;45951;45.824;8.824;2023-05-29T05:10:25;8.70;;;6.18;;
60078;SDS011;45951;45.824;8.824;2023-05-29T05:12:08;9.88;;;6.22;;
60078;SDS011;45951;45.824;8.824;2023-05-29T05:13:56;8.30;;;5.38;;
60078;SDS011;45951;45.824;8.824;2023-05-29T05:15:40;8.98;;;6.50;;
60078;SDS011;45951;45.824;8.824;2023-05-29T05:17:22;9.93;;;6.20;;
60078;SDS011;45951;45.824;8.824;2023-05-29T05:19:05;10.27;;;6.45;;
60078;SDS011;45951;45.824;8.824;2023-05-29T05:20:45;9.88;;;6.13;;
60078;SDS011;45951;45.824;8.824;2023-05-29T05:22:28;10.40;;;6.35;;
60078;SDS011;45951;45.824;8.824;2023-05-29T05:24:08;9.70;;;5.85;;
60078;SDS011;45951;45.824;8.824;2023-05-29T05:25:48;8.57;;;6.25;;
60078;SDS011;45951;45.824;8.824;2023-05-29T05:27:32;10.05;;;6.38;;
60078;SDS011;45951;45.824;8.824;2023-05-29T05:29:13;10.65;;;6.70;;
60078;SDS011;45951;45.824;8.824;2023-05-29T05:30:57;9.50;;;6.35;;
60078;SDS011;45951;45.824;8.824;2023-05-29T05:32:44;9.75;;;6.38;;
60078;SDS011;45951;45.824;8.824;2023-05-29T05:34:27;8.55;;;5.85;;
60078;SDS011;45951;45.824;8.824;2023-05-29T05:36:09;9.00;;;6.40;;
60078;SDS011;45951;45.824;8.824;2023-05-29T05:37:50;8.98;;;5.95;;
60078;SDS011;45951;45.824;8.824;2023-05-29T05:39:30;8.75;;;6.07;;
60078;SDS011;45951;45.824;8.824;2023-05-29T05:41:14;8.80;;;6.05;;
60078;SDS011;45951;45.824;8.824;2023-05-29T05:42:54;10.00;;;6.30;;
60078;SDS011;45951;45.824;8.824;2023-05-29T05:44:34;11.88;;;7.45;;
60078;SDS011;45951;45.824;8.824;2023-05-29T05:46:15;10.23;;;6.68;;
60078;SDS011;45951;45.824;8.824;2023-05-29T05:47:57;12.23;;;7.22;;
60078;SDS011;45951;45.824;8.824;2023-05-29T05:49:37;10.45;;;6.75;;
60078;SDS011;45951;45.824;8.824;2023-05-29T05:51:18;11.90;;;7.55;;
60078;SDS011;45951;45.824;8.824;2023-05-29T05:52:59;12.55;;;6.95;;
60078;SDS011;45951;45.824;8.824;2023-05-29T05:54:39;12.35;;;7.65;;
60078;SDS011;45951;45.824;8.824;2023-05-29T05:56:20;14.20;;;8.63;;
60078;SDS011;45951;45.824;8.824;2023-05-29T05:58:00;13.02;;;7.00;;
60078;SDS011;45951;45.824;8.824;2023-05-29T05:59:41;12.55;;;7.88;;
60078;SDS011;45951;45.824;8.824;2023-05-29T06:01:21;14.80;;;7.90;;
60078;SDS011;45951;45.824;8.824;2023-05-29T06:03:01;13.05;;;7.50;;
60078;SDS011;45951;45.824;8.824;2023-05-29T06:04:43;12.45;;;7.65;;
60078;SDS011;45951;45.824;8.824;2023-05-29T06:06:23;12.90;;;7.15;;
60078;SDS011;45951;45.824;8.824;2023-05-29T06:08:04;10.75;;;6.82;;
60078;SDS011;45951;45.824;8.824;2023-05-29T06:09:45;12.07;;;7.55;;
60078;SDS011;45951;45.824;8.824;2023-05-29T06:11:26;12.38;;;8.15;;
60078;SDS011;45951;45.824;8.824;2023-05-29T06:13:06;10.73;;;7.45;;
60078;SDS011;45951;45.824;8.824;2023-05-29T06:14:46;12.43;;;7.43;;
60078;SDS011;45951;45.824;8.824;2023-05-29T06:16:27;10.68;;;7.32;;
60078;SDS011;45951;45.824;8.824;2023-05-29T06:18:07;12.88;;;7.68;;
60078;SDS011;45951;45.824;8.824;2023-05-29T06:19:48;11.85;;;7.75;;
60078;SDS011;45951;45.824;8.824;2023-05-29T06:21:28;12.50;;;7.75;;
60078;SDS011;45951;45.824;8.824;2023-05-29T06:23:08;13.55;;;8.18;;
60078;SDS011;45951;45.824;8.824;2023-05-29T06:24:49;11.50;;;8.00;;
60078;SDS011;45951;45.824;8.824;2023-05-29T06:26:29;13.95;;;8.30;;
60078;SDS011;45951;45.824;8.824;2023-05-29T06:28:09;11.43;;;8.32;;
60078;SDS011;45951;45.824;8.824;2023-05-29T06:29:50;11.63;;;7.85;;
60078;SDS011;45951;45.824;8.824;2023-05-29T06:31:30;11.60;;;8.05;;
60078;SDS011;45951;45.824;8.824;2023-05-29T06:33:12;12.05;;;8.07;;
60078;SDS011;45951;45.824;8.824;2023-05-29T06:34:52;12.75;;;8.10;;
60078;SDS011;45951;45.824;8.824;2023-05-29T06:36:32;12.52;;;8.02;;
60078;SDS011;45951;45.824;8.824;2023-05-29T06:38:15;9.13;;;7.25;;
60078;SDS011;45951;45.824;8.824;2023-05-29T06:39:56;10.57;;;7.65;;
60078;SDS011;45951;45.824;8.824;2023-05-29T06:41:36;11.27;;;7.15;;
60078;SDS011;45951;45.824;8.824;2023-05-29T06:43:16;11.40;;;8.15;;
60078;SDS011;45951;45.824;8.824;2023-05-29T06:44:57;10.55;;;7.70;;
60078;SDS011;45951;45.824;8.824;2023-05-29T06:46:37;10.90;;;7.40;;
60078;SDS011;45951;45.824;8.824;2023-05-29T06:48:18;9.60;;;6.88;;
60078;SDS011;45951;45.824;8.824;2023-05-29T06:49:58;11.40;;;7.85;;
60078;SDS011;45951;45.824;8.824;2023-05-29T06:51:38;11.43;;;6.85;;
60078;SDS011;45951;45.824;8.824;2023-05-29T06:53:18;10.90;;;7.60;;
60078;SDS011;45951;45.824;8.824;2023-05-29T06:54:59;11.70;;;7.22;;
60078;SDS011;45951;45.824;8.824;2023-05-29T06:56:39;9.98;;;7.15;;
60078;SDS011;45951;45.824;8.824;2023-05-29T06:58:19;11.10;;;7.25;;
60078;SDS011;45951;45.824;8.824;2023-05-29T07:00:00;11.05;;;7.55;;
60078;SDS011;45951;45.824;8.824;2023-05-29T07:01:40;11.48;;;8.50;;
60078;SDS011;45951;45.824;8.824;2023-05-29T07:03:20;12.00;;;8.32;;
60078;SDS011;45951;45.824;8.824;2023-05-29T07:05:01;13.25;;;7.60;;
60078;SDS011;45951;45.824;8.824;2023-05-29T07:06:41;10.82;;;7.55;;
60078;SDS011;45951;45.824;8.824;2023-05-29T07:08:22;11.90;;;7.57;;
60078;SDS011;45951;45.824;8.824;2023-05-29T07:10:03;10.32;;;7.82;;
60078;SDS011;45951;45.824;8.824;2023-05-29T07:11:43;12.27;;;7.97;;
60078;SDS011;45951;45.824;8.824;2023-05-29T07:13:24;13.30;;;8.20;;
60078;SDS011;45951;45.824;8.824;2023-05-29T07:15:06;11.25;;;7.10;;
60078;SDS011;45951;45.824;8.824;2023-05-29T07:16:47;10.35;;;7.28;;
60078;SDS011;45951;45.824;8.824;2023-05-29T07:18:27;11.50;;;7.97;;
60078;SDS011;45951;45.824;8.824;2023-05-29T07:20:07;11.55;;;7.88;;
60078;SDS011;45951;45.824;8.824;2023-05-29T07:21:48;19.33;;;10.77;;
60078;SDS011;45951;45.824;8.824;2023-05-29T07:23:28;11.27;;;7.60;;
60078;SDS011;45951;45.824;8.824;2023-05-29T07:25:08;10.88;;;7.80;;
60078;SDS011;45951;45.824;8.824;2023-05-29T07:26:49;10.02;;;7.30;;
60078;SDS011;45951;45.824;8.824;2023-05-29T07:28:32;10.18;;;7.15;;
60078;SDS011;45951;45.824;8.824;2023-05-29T07:30:12;10.68;;;7.38;;
60078;SDS011;45951;45.824;8.824;2023-05-29T07:31:53;10.32;;;7.03;;
60078;SDS011;45951;45.824;8.824;2023-05-29T07:33:33;11.27;;;7.45;;
60078;SDS011;45951;45.824;8.824;2023-05-29T07:35:14;11.10;;;6.93;;
60078;SDS011;45951;45.824;8.824;2023-05-29T07:37:01;10.38;;;7.35;;
60078;SDS011;45951;45.824;8.824;2023-05-29T07:40:24;10.15;;;7.53;;
60078;SDS011;45951;45.824;8.824;2023-05-29T07:42:05;9.77;;;6.82;;
60078;SDS011;45951;45.824;8.824;2023-05-29T07:43:46;9.55;;;7.10;;
60078;SDS011;45951;45.824;8.824;2023-05-29T07:45:31;12.48;;;7.13;;
60078;SDS011;45951;45.824;8.824;2023-05-29T07:47:11;10.07;;;7.40;;
60078;SDS011;45951;45.824;8.824;2023-05-29T07:48:53;9.98;;;7.25;;
60078;SDS011;45951;45.824;8.824;2023-05-29T07:50:33;10.52;;;7.88;;
60078;SDS011;45951;45.824;8.824;2023-05-29T07:52:13;9.48;;;6.82;;
60078;SDS011;45951;45.824;8.824;2023-05-29T07:53:54;9.10;;;6.90;;
60078;SDS011;45951;45.824;8.824;2023-05-29T07:55:34;10.52;;;7.63;;
60078;SDS011;45951;45.824;8.824;2023-05-29T07:57:15;9.10;;;7.35;;
60078;SDS011;45951;45.824;8.824;2023-05-29T07:58:58;9.98;;;6.68;;
60078;SDS011;45951;45.824;8.824;2023-05-29T08:00:43;8.57;;;6.60;;
60078;SDS011;45951;45.824;8.824;2023-05-29T08:02:39;8.55;;;6.70;;
60078;SDS011;45951;45.824;8.824;2023-05-29T08:04:23;11.68;;;7.28;;
60078;SDS011;45951;45.824;8.824;2023-05-29T08:06:13;9.07;;;6.60;;
60078;SDS011;45951;45.824;8.824;2023-05-29T08:07:58;8.40;;;6.38;;
60078;SDS011;45951;45.824;8.824;2023-05-29T08:09:40;9.82;;;7.60;;
60078;SDS011;45951;45.824;8.824;2023-05-29T08:11:21;9.23;;;6.95;;
60078;SDS011;45951;45.824;8.824;2023-05-29T08:13:02;11.65;;;7.85;;
60078;SDS011;45951;45.824;8.824;2023-05-29T08:14:44;9.70;;;7.20;;
60078;SDS011;45951;45.824;8.824;2023-05-29T08:16:27;10.55;;;7.32;;
60078;SDS011;45951;45.824;8.824;2023-05-29T08:18:12;10.55;;;7.38;;
60078;SDS011;45951;45.824;8.824;2023-05-29T08:19:53;9.48;;;7.10;;
60078;SDS011;45951;45.824;8.824;2023-05-29T08:21:33;9.88;;;7.28;;
60078;SDS011;45951;45.824;8.824;2023-05-29T08:23:16;8.63;;;6.70;;
60078;SDS011;45951;45.824;8.824;2023-05-29T08:24:56;8.50;;;6.30;;
60078;SDS011;45951;45.824;8.824;2023-05-29T08:26:39;9.02;;;6.55;;
60078;SDS011;45951;45.824;8.824;2023-05-29T08:28:21;9.55;;;6.53;;
60078;SDS011;45951;45.824;8.824;2023-05-29T08:30:06;8.25;;;6.53;;
60078;SDS011;45951;45.824;8.824;2023-05-29T08:31:47;8.40;;;6.45;;
60078;SDS011;45951;45.824;8.824;2023-05-29T08:33:27;9.68;;;6.45;;
60078;SDS011;45951;45.824;8.824;2023-05-29T08:35:07;8.93;;;6.22;;
60078;SDS011;45951;45.824;8.824;2023-05-29T08:36:48;7.82;;;6.15;;
60078;SDS011;45951;45.824;8.824;2023-05-29T08:38:37;8.85;;;5.90;;
60078;SDS011;45951;45.824;8.824;2023-05-29T08:40:20;9.13;;;6.00;;
60078;SDS011;45951;45.824;8.824;2023-05-29T08:43:50;8.52;;;6.07;;
60078;SDS011;45951;45.824;8.824;2023-05-29T08:45:33;6.97;;;5.05;;
60078;SDS011;45951;45.824;8.824;2023-05-29T08:47:14;8.52;;;6.03;;
60078;SDS011;45951;45.824;8.824;2023-05-29T08:49:00;9.18;;;5.55;;
60078;SDS011;45951;45.824;8.824;2023-05-29T08:50:43;8.77;;;5.95;;
60078;SDS011;45951;45.824;8.824;2023-05-29T08:52:31;8.00;;;5.60;;
60078;SDS011;45951;45.824;8.824;2023-05-29T08:54:20;8.00;;;5.40;;
60078;SDS011;45951;45.824;8.824;2023-05-29T08:56:04;8.00;;;5.85;;
60078;SDS011;45951;45.824;8.824;2023-05-29T08:57:45;8.00;;;5.80;;
60078;SDS011;45951;45.824;8.824;2023-05-29T08:59:25;7.63;;;5.60;;
60078;SDS011;45951;45.824;8.824;2023-05-29T09:01:06;7.30;;;5.60;;
60078;SDS011;45951;45.824;8.824;2023-05-29T09:02:48;7.10;;;5.20;;
60078;SDS011;45951;45.824;8.824;2023-05-29T09:04:33;7.57;;;5.38;;
60078;SDS011;45951;45.824;8.824;2023-05-29T09:06:13;7.95;;;5.47;;
60078;SDS011;45951;45.824;8.824;2023-05-29T09:07:54;8.40;;;5.85;;
60078;SDS011;45951;45.824;8.824;2023-05-29T09:09:34;7.07;;;5.50;;
60078;SDS011;45951;45.824;8.824;2023-05-29T09:11:17;7.70;;;5.60;;
60078;SDS011;45951;45.824;8.824;2023-05-29T09:12:59;7.30;;;5.50;;
60078;SDS011;45951;45.824;8.824;2023-05-29T09:14:49;7.20;;;5.60;;
60078;SDS011;45951;45.824;8.824;2023-05-29T09:16:33;6.93;;;5.55;;
60078;SDS011;45951;45.824;8.824;2023-05-29T09:18:22;8.73;;;6.10;;
60078;SDS011;45951;45.824;8.824;2023-05-29T09:20:02;9.93;;;7.20;;
60078;SDS011;45951;45.824;8.824;2023-05-29T09:21:54;9.43;;;6.22;;
60078;SDS011;45951;45.824;8.824;2023-05-29T09:23:42;7.93;;;6.22;;
60078;SDS011;45951;45.824;8.824;2023-05-29T09:25:26;6.95;;;5.18;;
60078;SDS011;45951;45.824;8.824;2023-05-29T09:27:10;7.47;;;5.65;;
60078;SDS011;45951;45.824;8.824;2023-05-29T09:28:56;8.65;;;6.03;;
60078;SDS011;45951;45.824;8.824;2023-05-29T09:30:39;8.52;;;5.30;;
60078;SDS011;45951;45.824;8.824;2023-05-29T09:32:21;7.97;;;5.72;;
60078;SDS011;45951;45.824;8.824;2023-05-29T09:34:04;7.95;;;5.95;;
60078;SDS011;45951;45.824;8.824;2023-05-29T09:35:49;7.32;;;5.72;;
60078;SDS011;45951;45.824;8.824;2023-05-29T09:37:30;8.23;;;6.25;;
60078;SDS011;45951;45.824;8.824;2023-05-29T09:39:10;6.97;;;5.35;;
60078;SDS011;45951;45.824;8.824;2023-05-29T09:40:51;8.70;;;5.90;;
60078;SDS011;45951;45.824;8.824;2023-05-29T09:42:40;8.35;;;5.90;;
60078;SDS011;45951;45.824;8.824;2023-05-29T09:44:23;7.63;;;6.18;;
60078;SDS011;45951;45.824;8.824;2023-05-29T09:46:12;7.95;;;5.82;;
60078;SDS011;45951;45.824;8.824;2023-05-29T09:47:56;9.15;;;5.70;;
60078;SDS011;45951;45.824;8.824;2023-05-29T09:49:44;7.63;;;6.00;;
60078;SDS011;45951;45.824;8.824;2023-05-29T09:51:26;8.98;;;5.90;;
60078;SDS011;45951;45.824;8.824;2023-05-29T09:53:15;9.35;;;5.45;;
60078;SDS011;45951;45.824;8.824;2023-05-29T09:55:01;7.28;;;5.32;;
60078;SDS011;45951;45.824;8.824;2023-05-29T09:56:42;6.45;;;4.97;;
60078;SDS011;45951;45.824;8.824;2023-05-29T09:58:23;9.48;;;5.45;;
60078;SDS011;45951;45.824;8.824;2023-05-29T10:00:10;8.85;;;5.40;;
60078;SDS011;45951;45.824;8.824;2023-05-29T10:01:57;8.77;;;5.03;;
60078;SDS011;45951;45.824;8.824;2023-05-29T10:03:41;8.55;;;5.43;;
60078;SDS011;45951;45.824;8.824;2023-05-29T10:05:26;11.88;;;5.97;;
60078;SDS011;45951;45.824;8.824;2023-05-29T10:09:14;6.80;;;5.27;;
60078;SDS011;45951;45.824;8.824;2023-05-29T10:10:59;6.50;;;4.45;;
60078;SDS011;45951;45.824;8.824;2023-05-29T10:12:53;6.70;;;4.90;;
60078;SDS011;45951;45.824;8.824;2023-05-29T10:17:01;7.27;;;5.27;;
60078;SDS011;45951;45.824;8.824;2023-05-29T10:18:50;7.90;;;4.88;;
60078;SDS011;45951;45.824;8.824;2023-05-29T10:20:35;6.75;;;5.13;;
60078;SDS011;45951;45.824;8.824;2023-05-29T10:22:19;7.85;;;5.38;;
60078;SDS011;45951;45.824;8.824;2023-05-29T10:24:04;7.13;;;4.60;;
60078;SDS011;45951;45.824;8.824;2023-05-29T10:25:58;7.38;;;5.13;;